sensor_id;sensor_type;location;lat;lon;timestamp;P1;durP1;ratioP1;P2;durP2;ratioP2
26086;SDS011;13851;43.434;28.338;2023-05-17T00:00:52;10.18;;;5.05;;
26086;SDS011;13851;43.434;28.338;2023-05-17T00:03:17;10.30;;;4.60;;
26086;SDS011;13851;43.434;28.338;2023-05-17T00:05:43;10.15;;;4.57;;
26086;SDS011;13851;43.434;28.338;2023-05-17T00:08:08;14.75;;;5.10;;
26086;SDS011;13851;43.434;28.338;2023-05-17T00:10:34;12.38;;;4.88;;
26086;SDS011;13851;43.434;28.338;2023-05-17T00:13:00;12.55;;;4.80;;
26086;SDS011;13851;43.434;28.338;2023-05-17T00:15:25;10.68;;;4.47;;
26086;SDS011;13851;43.434;28.338;2023-05-17T00:17:51;9.85;;;4.53;;
26086;SDS011;13851;43.434;28.338;2023-05-17T00:20:16;10.50;;;4.85;;
26086;SDS011;13851;43.434;28.338;2023-05-17T00:22:42;11.20;;;4.38;;
26086;SDS011;13851;43.434;28.338;2023-05-17T00:25:09;13.35;;;4.82;;
26086;SDS011;13851;43.434;28.338;2023-05-17T00:27:35;25.08;;;14.25;;
26086;SDS011;13851;43.434;28.338;2023-05-17T00:30:01;29.80;;;14.40;;
26086;SDS011;13851;43.434;28.338;2023-05-17T00:32:26;14.18;;;7.80;;
26086;SDS011;13851;43.434;28.338;2023-05-17T00:34:52;13.98;;;5.90;;
26086;SDS011;13851;43.434;28.338;2023-05-17T00:37:17;12.30;;;4.80;;
26086;SDS011;13851;43.434;28.338;2023-05-17T00:39:43;14.82;;;4.75;;
26086;SDS011;13851;43.434;28.338;2023-05-17T00:42:08;11.40;;;4.50;;
26086;SDS011;13851;43.434;28.338;2023-05-17T00:44:35;12.95;;;4.80;;
26086;SDS011;13851;43.434;28.338;2023-05-17T00:47:01;10.90;;;5.07;;
26086;SDS011;13851;43.434;28.338;2023-05-17T00:49:27;13.70;;;4.95;;
26086;SDS011;13851;43.434;28.338;2023-05-17T00:51:53;11.20;;;4.82;;
26086;SDS011;13851;43.434;28.338;2023-05-17T00:54:20;13.27;;;4.72;;
26086;SDS011;13851;43.434;28.338;2023-05-17T00:56:46;16.27;;;5.45;;
26086;SDS011;13851;43.434;28.338;2023-05-17T00:59:15;14.13;;;4.63;;
26086;SDS011;13851;43.434;28.338;2023-05-17T01:01:41;7.95;;;4.18;;
26086;SDS011;13851;43.434;28.338;2023-05-17T01:04:08;11.10;;;4.65;;
26086;SDS011;13851;43.434;28.338;2023-05-17T01:06:34;10.77;;;4.60;;
26086;SDS011;13851;43.434;28.338;2023-05-17T01:09:01;10.75;;;4.88;;
26086;SDS011;13851;43.434;28.338;2023-05-17T01:14:08;10.10;;;4.60;;
26086;SDS011;13851;43.434;28.338;2023-05-17T01:16:43;10.35;;;4.50;;
26086;SDS011;13851;43.434;28.338;2023-05-17T01:19:44;14.55;;;4.72;;
26086;SDS011;13851;43.434;28.338;2023-05-17T01:22:24;12.07;;;4.78;;
26086;SDS011;13851;43.434;28.338;2023-05-17T01:25:03;11.90;;;4.57;;
26086;SDS011;13851;43.434;28.338;2023-05-17T01:27:49;14.52;;;5.13;;
26086;SDS011;13851;43.434;28.338;2023-05-17T01:30:16;8.70;;;4.53;;
26086;SDS011;13851;43.434;28.338;2023-05-17T01:32:44;11.30;;;4.63;;
26086;SDS011;13851;43.434;28.338;2023-05-17T01:35:10;15.38;;;4.63;;
26086;SDS011;13851;43.434;28.338;2023-05-17T01:37:37;13.13;;;4.78;;
26086;SDS011;13851;43.434;28.338;2023-05-17T01:40:03;12.20;;;4.72;;
26086;SDS011;13851;43.434;28.338;2023-05-17T01:42:32;10.30;;;4.47;;
26086;SDS011;13851;43.434;28.338;2023-05-17T01:47:35;10.90;;;4.38;;
26086;SDS011;13851;43.434;28.338;2023-05-17T01:50:21;10.75;;;4.68;;
26086;SDS011;13851;43.434;28.338;2023-05-17T01:52:51;13.48;;;5.25;;
26086;SDS011;13851;43.434;28.338;2023-05-17T01:58:06;10.82;;;4.72;;
26086;SDS011;13851;43.434;28.338;2023-05-17T02:00:34;9.80;;;4.75;;
26086;SDS011;13851;43.434;28.338;2023-05-17T02:03:01;12.20;;;4.78;;
26086;SDS011;13851;43.434;28.338;2023-05-17T02:05:27;13.90;;;4.95;;
26086;SDS011;13851;43.434;28.338;2023-05-17T02:07:52;10.55;;;4.22;;
26086;SDS011;13851;43.434;28.338;2023-05-17T02:10:18;10.90;;;4.70;;
26086;SDS011;13851;43.434;28.338;2023-05-17T02:12:46;9.55;;;4.22;;
26086;SDS011;13851;43.434;28.338;2023-05-17T02:15:11;12.32;;;4.30;;
26086;SDS011;13851;43.434;28.338;2023-05-17T02:17:38;10.43;;;5.07;;
26086;SDS011;13851;43.434;28.338;2023-05-17T02:20:05;11.00;;;4.90;;
26086;SDS011;13851;43.434;28.338;2023-05-17T02:22:32;12.75;;;5.13;;
26086;SDS011;13851;43.434;28.338;2023-05-17T02:24:57;10.30;;;4.63;;
26086;SDS011;13851;43.434;28.338;2023-05-17T02:27:23;11.18;;;4.63;;
26086;SDS011;13851;43.434;28.338;2023-05-17T02:29:48;14.63;;;5.95;;
26086;SDS011;13851;43.434;28.338;2023-05-17T02:32:14;12.80;;;5.93;;
26086;SDS011;13851;43.434;28.338;2023-05-17T02:34:42;15.85;;;7.85;;
26086;SDS011;13851;43.434;28.338;2023-05-17T02:37:08;10.90;;;5.00;;
26086;SDS011;13851;43.434;28.338;2023-05-17T02:39:33;9.45;;;4.65;;
26086;SDS011;13851;43.434;28.338;2023-05-17T02:41:59;10.02;;;4.85;;
26086;SDS011;13851;43.434;28.338;2023-05-17T02:44:24;13.88;;;5.55;;
26086;SDS011;13851;43.434;28.338;2023-05-17T02:46:50;13.38;;;5.65;;
26086;SDS011;13851;43.434;28.338;2023-05-17T02:49:15;14.98;;;5.07;;
26086;SDS011;13851;43.434;28.338;2023-05-17T02:51:41;9.43;;;5.00;;
26086;SDS011;13851;43.434;28.338;2023-05-17T02:54:06;12.10;;;5.50;;
26086;SDS011;13851;43.434;28.338;2023-05-17T02:56:32;14.07;;;5.10;;
26086;SDS011;13851;43.434;28.338;2023-05-17T02:58:58;11.93;;;5.70;;
26086;SDS011;13851;43.434;28.338;2023-05-17T03:01:25;9.07;;;5.15;;
26086;SDS011;13851;43.434;28.338;2023-05-17T03:03:51;10.40;;;5.18;;
26086;SDS011;13851;43.434;28.338;2023-05-17T03:06:17;12.25;;;5.03;;
26086;SDS011;13851;43.434;28.338;2023-05-17T03:08:42;11.27;;;5.57;;
26086;SDS011;13851;43.434;28.338;2023-05-17T03:11:08;12.55;;;5.45;;
26086;SDS011;13851;43.434;28.338;2023-05-17T03:13:33;11.80;;;5.22;;
26086;SDS011;13851;43.434;28.338;2023-05-17T03:15:59;12.63;;;4.97;;
26086;SDS011;13851;43.434;28.338;2023-05-17T03:18:24;12.43;;;4.53;;
26086;SDS011;13851;43.434;28.338;2023-05-17T03:20:50;13.48;;;5.32;;
26086;SDS011;13851;43.434;28.338;2023-05-17T03:23:15;20.60;;;5.88;;
26086;SDS011;13851;43.434;28.338;2023-05-17T03:25:41;23.95;;;6.75;;
26086;SDS011;13851;43.434;28.338;2023-05-17T03:28:06;16.58;;;5.60;;
26086;SDS011;13851;43.434;28.338;2023-05-17T03:30:32;10.82;;;6.18;;
26086;SDS011;13851;43.434;28.338;2023-05-17T03:32:57;11.13;;;4.93;;
26086;SDS011;13851;43.434;28.338;2023-05-17T03:35:23;10.48;;;4.85;;
26086;SDS011;13851;43.434;28.338;2023-05-17T03:37:48;14.52;;;7.78;;
26086;SDS011;13851;43.434;28.338;2023-05-17T03:40:17;25.45;;;17.50;;
26086;SDS011;13851;43.434;28.338;2023-05-17T03:42:45;21.27;;;11.02;;
26086;SDS011;13851;43.434;28.338;2023-05-17T03:45:11;14.82;;;7.75;;
26086;SDS011;13851;43.434;28.338;2023-05-17T03:47:37;13.68;;;6.35;;
26086;SDS011;13851;43.434;28.338;2023-05-17T03:50:02;14.50;;;5.97;;
26086;SDS011;13851;43.434;28.338;2023-05-17T03:52:28;16.75;;;6.53;;
26086;SDS011;13851;43.434;28.338;2023-05-17T03:54:54;13.63;;;5.50;;
26086;SDS011;13851;43.434;28.338;2023-05-17T03:57:20;15.15;;;5.82;;
26086;SDS011;13851;43.434;28.338;2023-05-17T03:59:46;15.82;;;5.97;;
26086;SDS011;13851;43.434;28.338;2023-05-17T04:02:13;11.98;;;5.55;;
26086;SDS011;13851;43.434;28.338;2023-05-17T04:04:40;15.80;;;9.68;;
26086;SDS011;13851;43.434;28.338;2023-05-17T04:07:05;29.85;;;23.30;;
26086;SDS011;13851;43.434;28.338;2023-05-17T04:09:31;23.73;;;12.48;;
26086;SDS011;13851;43.434;28.338;2023-05-17T04:11:59;21.00;;;11.85;;
26086;SDS011;13851;43.434;28.338;2023-05-17T04:17:00;13.48;;;5.13;;
26086;SDS011;13851;43.434;28.338;2023-05-17T04:19:26;14.18;;;5.40;;
26086;SDS011;13851;43.434;28.338;2023-05-17T04:21:51;16.77;;;6.03;;
26086;SDS011;13851;43.434;28.338;2023-05-17T04:24:17;14.35;;;5.70;;
26086;SDS011;13851;43.434;28.338;2023-05-17T04:26:42;18.83;;;5.88;;
26086;SDS011;13851;43.434;28.338;2023-05-17T04:29:08;12.65;;;5.90;;
26086;SDS011;13851;43.434;28.338;2023-05-17T04:31:34;13.77;;;6.18;;
26086;SDS011;13851;43.434;28.338;2023-05-17T04:33:59;17.60;;;6.00;;
26086;SDS011;13851;43.434;28.338;2023-05-17T04:36:25;20.55;;;7.20;;
26086;SDS011;13851;43.434;28.338;2023-05-17T04:38:50;12.98;;;6.10;;
26086;SDS011;13851;43.434;28.338;2023-05-17T04:41:16;23.00;;;7.28;;
26086;SDS011;13851;43.434;28.338;2023-05-17T04:43:41;15.88;;;6.28;;
26086;SDS011;13851;43.434;28.338;2023-05-17T04:46:07;13.68;;;5.40;;
26086;SDS011;13851;43.434;28.338;2023-05-17T04:48:33;15.48;;;6.50;;
26086;SDS011;13851;43.434;28.338;2023-05-17T04:51:02;11.65;;;5.95;;
26086;SDS011;13851;43.434;28.338;2023-05-17T04:53:28;18.13;;;7.40;;
26086;SDS011;13851;43.434;28.338;2023-05-17T04:55:55;13.32;;;5.57;;
26086;SDS011;13851;43.434;28.338;2023-05-17T04:58:21;16.50;;;6.07;;
26086;SDS011;13851;43.434;28.338;2023-05-17T05:00:48;16.90;;;6.25;;
26086;SDS011;13851;43.434;28.338;2023-05-17T05:03:14;20.35;;;6.38;;
26086;SDS011;13851;43.434;28.338;2023-05-17T05:05:39;11.63;;;5.07;;
26086;SDS011;13851;43.434;28.338;2023-05-17T05:08:05;12.90;;;5.18;;
26086;SDS011;13851;43.434;28.338;2023-05-17T05:10:30;11.27;;;4.72;;
26086;SDS011;13851;43.434;28.338;2023-05-17T05:12:56;14.02;;;4.50;;
26086;SDS011;13851;43.434;28.338;2023-05-17T05:15:22;14.90;;;5.28;;
26086;SDS011;13851;43.434;28.338;2023-05-17T05:17:48;13.50;;;4.65;;
26086;SDS011;13851;43.434;28.338;2023-05-17T05:20:13;11.05;;;4.10;;
26086;SDS011;13851;43.434;28.338;2023-05-17T05:22:39;11.38;;;4.25;;
26086;SDS011;13851;43.434;28.338;2023-05-17T05:25:05;10.73;;;5.30;;
26086;SDS011;13851;43.434;28.338;2023-05-17T05:27:31;11.77;;;4.88;;
26086;SDS011;13851;43.434;28.338;2023-05-17T05:29:56;10.02;;;4.20;;
26086;SDS011;13851;43.434;28.338;2023-05-17T05:32:22;9.93;;;3.80;;
26086;SDS011;13851;43.434;28.338;2023-05-17T05:34:47;6.15;;;3.67;;
26086;SDS011;13851;43.434;28.338;2023-05-17T05:37:13;9.13;;;3.50;;
26086;SDS011;13851;43.434;28.338;2023-05-17T05:39:38;9.43;;;3.90;;
26086;SDS011;13851;43.434;28.338;2023-05-17T05:42:04;7.20;;;4.32;;
26086;SDS011;13851;43.434;28.338;2023-05-17T05:44:30;12.57;;;4.05;;
26086;SDS011;13851;43.434;28.338;2023-05-17T05:46:56;8.85;;;3.53;;
26086;SDS011;13851;43.434;28.338;2023-05-17T05:49:21;12.88;;;4.20;;
26086;SDS011;13851;43.434;28.338;2023-05-17T05:51:46;6.70;;;4.13;;
26086;SDS011;13851;43.434;28.338;2023-05-17T05:54:12;11.00;;;4.75;;
26086;SDS011;13851;43.434;28.338;2023-05-17T05:56:38;13.40;;;4.25;;
26086;SDS011;13851;43.434;28.338;2023-05-17T05:59:03;12.73;;;4.97;;
26086;SDS011;13851;43.434;28.338;2023-05-17T06:01:29;12.32;;;4.47;;
26086;SDS011;13851;43.434;28.338;2023-05-17T06:03:55;8.35;;;3.47;;
26086;SDS011;13851;43.434;28.338;2023-05-17T06:06:21;12.27;;;4.47;;
26086;SDS011;13851;43.434;28.338;2023-05-17T06:08:46;11.20;;;4.10;;
26086;SDS011;13851;43.434;28.338;2023-05-17T06:11:12;10.25;;;3.55;;
26086;SDS011;13851;43.434;28.338;2023-05-17T06:13:38;6.55;;;3.85;;
26086;SDS011;13851;43.434;28.338;2023-05-17T06:16:04;9.68;;;3.55;;
26086;SDS011;13851;43.434;28.338;2023-05-17T06:18:30;8.77;;;3.65;;
26086;SDS011;13851;43.434;28.338;2023-05-17T06:20:56;11.05;;;3.85;;
26086;SDS011;13851;43.434;28.338;2023-05-17T06:23:21;9.10;;;3.63;;
26086;SDS011;13851;43.434;28.338;2023-05-17T06:25:47;10.80;;;4.10;;
26086;SDS011;13851;43.434;28.338;2023-05-17T06:28:13;12.68;;;3.85;;
26086;SDS011;13851;43.434;28.338;2023-05-17T06:30:39;8.70;;;3.22;;
26086;SDS011;13851;43.434;28.338;2023-05-17T06:33:04;10.48;;;7.15;;
26086;SDS011;13851;43.434;28.338;2023-05-17T06:35:30;9.02;;;4.10;;
26086;SDS011;13851;43.434;28.338;2023-05-17T06:37:55;8.93;;;3.50;;
26086;SDS011;13851;43.434;28.338;2023-05-17T06:40:21;9.27;;;4.38;;
26086;SDS011;13851;43.434;28.338;2023-05-17T06:42:46;9.63;;;4.35;;
26086;SDS011;13851;43.434;28.338;2023-05-17T06:45:12;6.25;;;4.07;;
26086;SDS011;13851;43.434;28.338;2023-05-17T06:47:37;8.30;;;3.80;;
26086;SDS011;13851;43.434;28.338;2023-05-17T06:50:03;10.05;;;3.67;;
26086;SDS011;13851;43.434;28.338;2023-05-17T06:52:29;7.90;;;3.70;;
26086;SDS011;13851;43.434;28.338;2023-05-17T06:54:54;7.28;;;4.00;;
26086;SDS011;13851;43.434;28.338;2023-05-17T06:57:20;8.55;;;4.18;;
26086;SDS011;13851;43.434;28.338;2023-05-17T06:59:45;8.20;;;4.30;;
26086;SDS011;13851;43.434;28.338;2023-05-17T07:02:11;8.50;;;4.70;;
26086;SDS011;13851;43.434;28.338;2023-05-17T07:04:36;7.00;;;3.90;;
26086;SDS011;13851;43.434;28.338;2023-05-17T07:07:02;11.68;;;4.18;;
26086;SDS011;13851;43.434;28.338;2023-05-17T07:09:27;7.35;;;3.90;;
26086;SDS011;13851;43.434;28.338;2023-05-17T07:11:53;18.23;;;5.13;;
26086;SDS011;13851;43.434;28.338;2023-05-17T07:14:18;8.70;;;4.47;;
26086;SDS011;13851;43.434;28.338;2023-05-17T07:16:44;10.75;;;4.35;;
26086;SDS011;13851;43.434;28.338;2023-05-17T07:19:09;9.38;;;4.30;;
26086;SDS011;13851;43.434;28.338;2023-05-17T07:21:35;8.60;;;4.25;;
26086;SDS011;13851;43.434;28.338;2023-05-17T07:24:00;7.10;;;4.95;;
26086;SDS011;13851;43.434;28.338;2023-05-17T07:26:26;11.88;;;4.38;;
26086;SDS011;13851;43.434;28.338;2023-05-17T07:28:52;10.20;;;4.88;;
26086;SDS011;13851;43.434;28.338;2023-05-17T07:31:17;10.40;;;4.85;;
26086;SDS011;13851;43.434;28.338;2023-05-17T07:33:43;12.95;;;5.38;;
26086;SDS011;13851;43.434;28.338;2023-05-17T07:36:08;11.75;;;4.72;;
26086;SDS011;13851;43.434;28.338;2023-05-17T07:38:34;12.23;;;4.32;;
26086;SDS011;13851;43.434;28.338;2023-05-17T07:41:00;8.23;;;4.38;;
26086;SDS011;13851;43.434;28.338;2023-05-17T07:43:26;7.72;;;4.07;;
26086;SDS011;13851;43.434;28.338;2023-05-17T07:45:51;8.40;;;4.50;;
26086;SDS011;13851;43.434;28.338;2023-05-17T07:48:17;8.40;;;4.35;;
26086;SDS011;13851;43.434;28.338;2023-05-17T07:50:43;11.70;;;4.60;;
26086;SDS011;13851;43.434;28.338;2023-05-17T07:53:08;9.02;;;4.45;;
26086;SDS011;13851;43.434;28.338;2023-05-17T07:55:34;9.77;;;3.70;;
26086;SDS011;13851;43.434;28.338;2023-05-17T07:58:00;14.07;;;4.30;;
26086;SDS011;13851;43.434;28.338;2023-05-17T08:00:25;9.95;;;4.22;;
26086;SDS011;13851;43.434;28.338;2023-05-17T08:02:51;7.88;;;3.80;;
26086;SDS011;13851;43.434;28.338;2023-05-17T08:05:16;6.65;;;4.30;;
26086;SDS011;13851;43.434;28.338;2023-05-17T08:07:42;7.68;;;3.95;;
26086;SDS011;13851;43.434;28.338;2023-05-17T08:10:07;7.88;;;4.13;;
26086;SDS011;13851;43.434;28.338;2023-05-17T08:12:33;9.73;;;4.18;;
26086;SDS011;13851;43.434;28.338;2023-05-17T08:14:59;9.73;;;4.35;;
26086;SDS011;13851;43.434;28.338;2023-05-17T08:17:24;9.25;;;4.28;;
26086;SDS011;13851;43.434;28.338;2023-05-17T08:19:50;9.23;;;3.97;;
26086;SDS011;13851;43.434;28.338;2023-05-17T08:22:15;9.52;;;3.92;;
26086;SDS011;13851;43.434;28.338;2023-05-17T08:24:41;9.73;;;4.03;;
26086;SDS011;13851;43.434;28.338;2023-05-17T08:27:09;7.05;;;4.18;;
26086;SDS011;13851;43.434;28.338;2023-05-17T08:29:35;5.65;;;3.75;;
26086;SDS011;13851;43.434;28.338;2023-05-17T08:32:01;8.73;;;3.95;;
26086;SDS011;13851;43.434;28.338;2023-05-17T08:34:27;6.68;;;3.80;;
26086;SDS011;13851;43.434;28.338;2023-05-17T08:36:52;8.60;;;4.35;;
26086;SDS011;13851;43.434;28.338;2023-05-17T08:39:18;13.85;;;4.70;;
26086;SDS011;13851;43.434;28.338;2023-05-17T08:41:45;8.25;;;4.28;;
26086;SDS011;13851;43.434;28.338;2023-05-17T08:44:11;8.63;;;3.70;;
26086;SDS011;13851;43.434;28.338;2023-05-17T08:46:38;12.57;;;4.75;;
26086;SDS011;13851;43.434;28.338;2023-05-17T08:49:07;10.05;;;3.90;;
26086;SDS011;13851;43.434;28.338;2023-05-17T08:51:37;9.82;;;4.50;;
26086;SDS011;13851;43.434;28.338;2023-05-17T08:54:04;9.60;;;4.05;;
26086;SDS011;13851;43.434;28.338;2023-05-17T08:56:32;9.40;;;4.10;;
26086;SDS011;13851;43.434;28.338;2023-05-17T08:59:00;9.00;;;4.15;;
26086;SDS011;13851;43.434;28.338;2023-05-17T09:01:29;8.57;;;3.75;;
26086;SDS011;13851;43.434;28.338;2023-05-17T09:03:55;5.07;;;3.72;;
26086;SDS011;13851;43.434;28.338;2023-05-17T09:06:21;8.43;;;4.10;;
26086;SDS011;13851;43.434;28.338;2023-05-17T09:08:51;10.75;;;4.10;;
26086;SDS011;13851;43.434;28.338;2023-05-17T09:11:29;9.52;;;3.95;;
26086;SDS011;13851;43.434;28.338;2023-05-17T09:13:59;7.68;;;4.25;;
26086;SDS011;13851;43.434;28.338;2023-05-17T09:16:27;8.18;;;4.20;;
26086;SDS011;13851;43.434;28.338;2023-05-17T09:18:56;11.55;;;4.28;;
26086;SDS011;13851;43.434;28.338;2023-05-17T09:21:23;9.18;;;3.72;;
26086;SDS011;13851;43.434;28.338;2023-05-17T09:23:50;6.72;;;3.45;;
26086;SDS011;13851;43.434;28.338;2023-05-17T09:26:16;7.60;;;3.92;;
26086;SDS011;13851;43.434;28.338;2023-05-17T09:28:42;10.30;;;3.80;;
26086;SDS011;13851;43.434;28.338;2023-05-17T09:31:08;5.72;;;3.85;;
26086;SDS011;13851;43.434;28.338;2023-05-17T09:33:47;9.50;;;4.00;;
26086;SDS011;13851;43.434;28.338;2023-05-17T09:36:17;9.23;;;4.00;;
26086;SDS011;13851;43.434;28.338;2023-05-17T09:41:17;9.93;;;3.67;;
26086;SDS011;13851;43.434;28.338;2023-05-17T09:43:43;9.48;;;3.70;;
26086;SDS011;13851;43.434;28.338;2023-05-17T09:46:08;11.02;;;3.85;;
26086;SDS011;13851;43.434;28.338;2023-05-17T09:48:36;7.43;;;4.05;;
26086;SDS011;13851;43.434;28.338;2023-05-17T09:51:02;11.02;;;3.50;;
26086;SDS011;13851;43.434;28.338;2023-05-17T09:53:31;13.40;;;4.20;;
26086;SDS011;13851;43.434;28.338;2023-05-17T09:56:02;9.63;;;5.68;;
26086;SDS011;13851;43.434;28.338;2023-05-17T09:58:32;10.05;;;4.25;;
26086;SDS011;13851;43.434;28.338;2023-05-17T10:03:31;12.02;;;3.70;;
26086;SDS011;13851;43.434;28.338;2023-05-17T10:05:58;10.13;;;3.92;;
26086;SDS011;13851;43.434;28.338;2023-05-17T10:08:30;9.63;;;3.80;;
26086;SDS011;13851;43.434;28.338;2023-05-17T10:10:57;9.98;;;4.32;;
26086;SDS011;13851;43.434;28.338;2023-05-17T10:13:29;9.25;;;3.88;;
26086;SDS011;13851;43.434;28.338;2023-05-17T10:15:59;7.53;;;3.67;;
26086;SDS011;13851;43.434;28.338;2023-05-17T10:18:25;8.93;;;3.70;;
26086;SDS011;13851;43.434;28.338;2023-05-17T10:20:52;6.88;;;4.25;;
26086;SDS011;13851;43.434;28.338;2023-05-17T10:23:18;7.78;;;3.70;;
26086;SDS011;13851;43.434;28.338;2023-05-17T10:25:46;9.25;;;4.55;;
26086;SDS011;13851;43.434;28.338;2023-05-17T10:28:13;11.98;;;6.55;;
26086;SDS011;13851;43.434;28.338;2023-05-17T10:30:41;7.75;;;4.40;;
26086;SDS011;13851;43.434;28.338;2023-05-17T10:33:08;8.80;;;3.80;;
26086;SDS011;13851;43.434;28.338;2023-05-17T10:35:36;7.60;;;4.38;;
26086;SDS011;13851;43.434;28.338;2023-05-17T10:38:02;7.70;;;3.85;;
26086;SDS011;13851;43.434;28.338;2023-05-17T10:40:28;9.13;;;4.25;;
26086;SDS011;13851;43.434;28.338;2023-05-17T10:42:54;12.60;;;5.03;;
26086;SDS011;13851;43.434;28.338;2023-05-17T10:45:22;9.98;;;4.38;;
26086;SDS011;13851;43.434;28.338;2023-05-17T10:47:49;11.23;;;3.95;;
26086;SDS011;13851;43.434;28.338;2023-05-17T10:50:23;6.47;;;4.63;;
26086;SDS011;13851;43.434;28.338;2023-05-17T10:52:50;13.48;;;4.55;;
26086;SDS011;13851;43.434;28.338;2023-05-17T10:55:20;10.38;;;4.85;;
26086;SDS011;13851;43.434;28.338;2023-05-17T11:00:37;9.85;;;4.15;;
26086;SDS011;13851;43.434;28.338;2023-05-17T11:08:36;10.20;;;4.70;;
26086;SDS011;13851;43.434;28.338;2023-05-17T11:13:49;7.57;;;4.75;;
26086;SDS011;13851;43.434;28.338;2023-05-17T11:16:19;9.50;;;4.68;;
26086;SDS011;13851;43.434;28.338;2023-05-17T11:18:49;8.00;;;4.40;;
26086;SDS011;13851;43.434;28.338;2023-05-17T11:21:16;13.88;;;4.47;;
26086;SDS011;13851;43.434;28.338;2023-05-17T11:23:43;9.95;;;4.28;;
26086;SDS011;13851;43.434;28.338;2023-05-17T11:26:26;10.88;;;4.40;;
26086;SDS011;13851;43.434;28.338;2023-05-17T11:29:16;12.35;;;4.30;;
26086;SDS011;13851;43.434;28.338;2023-05-17T11:31:42;7.28;;;4.43;;
26086;SDS011;13851;43.434;28.338;2023-05-17T11:34:08;10.52;;;4.82;;
26086;SDS011;13851;43.434;28.338;2023-05-17T11:39:19;12.30;;;4.47;;
26086;SDS011;13851;43.434;28.338;2023-05-17T11:41:47;8.60;;;4.47;;
26086;SDS011;13851;43.434;28.338;2023-05-17T11:44:26;12.10;;;4.88;;
26086;SDS011;13851;43.434;28.338;2023-05-17T11:47:03;9.70;;;4.40;;
26086;SDS011;13851;43.434;28.338;2023-05-17T11:49:31;8.02;;;4.45;;
26086;SDS011;13851;43.434;28.338;2023-05-17T11:51:58;11.32;;;4.45;;
26086;SDS011;13851;43.434;28.338;2023-05-17T11:54:24;10.82;;;4.63;;
26086;SDS011;13851;43.434;28.338;2023-05-17T11:56:53;5.82;;;3.90;;
26086;SDS011;13851;43.434;28.338;2023-05-17T11:59:20;8.85;;;4.43;;
26086;SDS011;13851;43.434;28.338;2023-05-17T12:01:46;7.25;;;4.32;;
26086;SDS011;13851;43.434;28.338;2023-05-17T12:04:13;9.68;;;4.60;;
26086;SDS011;13851;43.434;28.338;2023-05-17T12:06:47;9.23;;;4.63;;
26086;SDS011;13851;43.434;28.338;2023-05-17T12:09:14;8.15;;;4.47;;
26086;SDS011;13851;43.434;28.338;2023-05-17T12:11:41;7.97;;;4.70;;
26086;SDS011;13851;43.434;28.338;2023-05-17T12:14:07;9.80;;;4.60;;
26086;SDS011;13851;43.434;28.338;2023-05-17T12:16:33;8.02;;;4.82;;
26086;SDS011;13851;43.434;28.338;2023-05-17T12:19:00;7.75;;;4.97;;
26086;SDS011;13851;43.434;28.338;2023-05-17T12:21:26;7.82;;;4.72;;
26086;SDS011;13851;43.434;28.338;2023-05-17T12:23:52;8.38;;;5.43;;
26086;SDS011;13851;43.434;28.338;2023-05-17T12:26:18;8.35;;;4.35;;
26086;SDS011;13851;43.434;28.338;2023-05-17T12:28:55;9.25;;;5.45;;
26086;SDS011;13851;43.434;28.338;2023-05-17T12:31:28;8.25;;;4.72;;
26086;SDS011;13851;43.434;28.338;2023-05-17T12:33:57;10.90;;;4.82;;
26086;SDS011;13851;43.434;28.338;2023-05-17T12:36:26;10.40;;;4.93;;
26086;SDS011;13851;43.434;28.338;2023-05-17T12:38:54;11.90;;;5.07;;
26086;SDS011;13851;43.434;28.338;2023-05-17T12:41:20;9.52;;;4.90;;
26086;SDS011;13851;43.434;28.338;2023-05-17T12:43:48;11.07;;;4.45;;
26086;SDS011;13851;43.434;28.338;2023-05-17T12:46:15;10.50;;;4.68;;
26086;SDS011;13851;43.434;28.338;2023-05-17T12:48:43;9.70;;;4.63;;
26086;SDS011;13851;43.434;28.338;2023-05-17T12:51:09;9.50;;;4.63;;
26086;SDS011;13851;43.434;28.338;2023-05-17T12:53:36;12.48;;;5.35;;
26086;SDS011;13851;43.434;28.338;2023-05-17T12:56:04;14.68;;;5.10;;
26086;SDS011;13851;43.434;28.338;2023-05-17T12:58:30;10.38;;;4.97;;
26086;SDS011;13851;43.434;28.338;2023-05-17T13:00:59;8.05;;;5.22;;
26086;SDS011;13851;43.434;28.338;2023-05-17T13:03:26;12.68;;;5.00;;
26086;SDS011;13851;43.434;28.338;2023-05-17T13:05:58;8.77;;;5.13;;
26086;SDS011;13851;43.434;28.338;2023-05-17T13:08:24;9.27;;;4.78;;
26086;SDS011;13851;43.434;28.338;2023-05-17T13:10:49;8.65;;;4.45;;
26086;SDS011;13851;43.434;28.338;2023-05-17T13:13:18;11.30;;;4.90;;
26086;SDS011;13851;43.434;28.338;2023-05-17T13:15:45;10.23;;;4.57;;
26086;SDS011;13851;43.434;28.338;2023-05-17T13:18:14;10.32;;;4.75;;
26086;SDS011;13851;43.434;28.338;2023-05-17T13:20:40;8.88;;;4.60;;
26086;SDS011;13851;43.434;28.338;2023-05-17T13:23:07;14.85;;;5.35;;
26086;SDS011;13851;43.434;28.338;2023-05-17T13:25:33;9.18;;;5.10;;
26086;SDS011;13851;43.434;28.338;2023-05-17T13:28:00;12.13;;;5.10;;
26086;SDS011;13851;43.434;28.338;2023-05-17T13:30:26;11.68;;;5.50;;
26086;SDS011;13851;43.434;28.338;2023-05-17T13:32:52;9.73;;;5.40;;
26086;SDS011;13851;43.434;28.338;2023-05-17T13:35:18;13.00;;;5.82;;
26086;SDS011;13851;43.434;28.338;2023-05-17T13:37:44;10.68;;;4.93;;
26086;SDS011;13851;43.434;28.338;2023-05-17T13:40:11;12.35;;;5.13;;
26086;SDS011;13851;43.434;28.338;2023-05-17T13:42:37;9.02;;;5.15;;
26086;SDS011;13851;43.434;28.338;2023-05-17T13:45:02;12.98;;;6.10;;
26086;SDS011;13851;43.434;28.338;2023-05-17T13:47:29;12.48;;;5.60;;
26086;SDS011;13851;43.434;28.338;2023-05-17T13:49:55;12.43;;;5.68;;
26086;SDS011;13851;43.434;28.338;2023-05-17T13:52:21;10.75;;;5.30;;
26086;SDS011;13851;43.434;28.338;2023-05-17T13:54:47;8.00;;;5.28;;
26086;SDS011;13851;43.434;28.338;2023-05-17T13:57:12;13.35;;;5.20;;
26086;SDS011;13851;43.434;28.338;2023-05-17T13:59:38;10.18;;;5.40;;
26086;SDS011;13851;43.434;28.338;2023-05-17T14:02:04;10.70;;;5.50;;
26086;SDS011;13851;43.434;28.338;2023-05-17T14:04:29;12.80;;;5.95;;
26086;SDS011;13851;43.434;28.338;2023-05-17T14:06:55;13.88;;;6.45;;
26086;SDS011;13851;43.434;28.338;2023-05-17T14:09:20;12.32;;;5.65;;
26086;SDS011;13851;43.434;28.338;2023-05-17T14:11:46;10.93;;;5.43;;
26086;SDS011;13851;43.434;28.338;2023-05-17T14:14:12;9.60;;;5.95;;
26086;SDS011;13851;43.434;28.338;2023-05-17T14:16:37;11.77;;;5.90;;
26086;SDS011;13851;43.434;28.338;2023-05-17T14:19:03;11.48;;;5.70;;
26086;SDS011;13851;43.434;28.338;2023-05-17T14:21:28;13.23;;;6.05;;
26086;SDS011;13851;43.434;28.338;2023-05-17T14:23:54;9.20;;;5.78;;
26086;SDS011;13851;43.434;28.338;2023-05-17T14:26:19;16.10;;;6.40;;
26086;SDS011;13851;43.434;28.338;2023-05-17T14:28:46;10.35;;;6.53;;
26086;SDS011;13851;43.434;28.338;2023-05-17T14:31:11;9.38;;;5.60;;
26086;SDS011;13851;43.434;28.338;2023-05-17T14:33:37;7.97;;;5.68;;
26086;SDS011;13851;43.434;28.338;2023-05-17T14:36:02;15.18;;;5.70;;
26086;SDS011;13851;43.434;28.338;2023-05-17T14:38:28;15.15;;;5.82;;
26086;SDS011;13851;43.434;28.338;2023-05-17T14:40:54;14.52;;;5.85;;
26086;SDS011;13851;43.434;28.338;2023-05-17T14:43:19;10.70;;;5.53;;
26086;SDS011;13851;43.434;28.338;2023-05-17T14:45:45;11.48;;;6.60;;
26086;SDS011;13851;43.434;28.338;2023-05-17T14:48:11;11.15;;;5.88;;
26086;SDS011;13851;43.434;28.338;2023-05-17T14:50:36;11.30;;;6.13;;
26086;SDS011;13851;43.434;28.338;2023-05-17T14:53:02;14.55;;;6.20;;